x

South Hatteras - 225 South Of Cape Hatteras (41002) Wave Buoy

9:50 - Mon 29th May 2017 All times are EDT. -4 hours from GMT.

  • Sig Wave height 3.6ft
  • Swell Direction
  • Peak Period 5s
  • Average Period 4s
  • Wind
    16mph, 18mph gusts
  • Sea Temp 76°f
  • Ar Temp 77°f
  • Sea Pressure 1015.8mb
  • South Hatteras - 225 South Of Cape Hatteras
  • South Hatteras - 225 South Of Cape Hatteras

More Historic Weather Station data

Upgrade to MSW Pro to gain access to the past 30 days of data for over 8000 Wavebouys and Weather Stations around the globe.

Join Pro

Comparision Forecast

View Surf forecast
   
Seg 05/29 9:50 3.5ft 5s 4s 16 18 mph 1015.8mb 76f 77f
8:50 3.5ft 5s 4s 16 18 mph 1015.6mb 76f 77f
7:50 3.5ft 6s 4s 16 20 mph 1015.2mb 76f 77f
6:50 3.5ft 5s 4s 18 22 mph 1014.7mb 76f 77f
5:50 3.5ft 6s 4s 18 20 mph 1014.2mb 77f 77f
4:50 3.5ft 6s 5s 18 20 mph 1013.6mb 77f 76f
3:50 3.5ft 6s 5s 18 20 mph 1013mb 77f 76f
2:50 3.5ft 6s 5s 13 16 mph 1013.6mb 77f 77f
1:50 4ft 6s 5s 13 18 mph 1014.3mb 77f 77f
12:50 3.5ft 6s 5s 16 18 mph 1015.2mb 77f 77f
Dom 05/28 11:50 3.5ft 7s 5s 13 18 mph 1014.7mb 77f 77f
10:50 3.5ft 6s 5s 16 18 mph 1014.6mb 77f 77f
9:50 4ft 6s 5s 16 18 mph 1014.2mb 77f 77f
8:50 3.5ft 7s 5s 16 18 mph 1014.2mb 77f 77f
7:50 3.5ft 6s 5s 13 16 mph 1014.6mb 77f 77f
6:50 3.5ft 6s 5s 16 18 mph 1014.6mb 77f 77f
5:50 4ft 5s 5s 16 18 mph 1014.3mb 77f 77f
4:50 3.5ft 5s 5s 16 18 mph 1014.5mb 77f 77f
3:50 4ft 5s 5s 13 16 mph 1015.6mb 77f 77f
2:50 4ft 5s 4s 13 16 mph 1016.2mb 77f 77f
1:50 4ft 5s 5s 16 18 mph 1016.3mb 77f 77f
12:50 4ft 5s 4s 16 20 mph 1016.6mb 77f 77f
11:50 4ft 5s 4s 18 22 mph 1015.9mb 77f 77f
10:50 3.5ft 4s 4s 20 25 mph 1015mb 77f 77f
9:50 3.5ft 5s 4s 18 20 mph 1014.5mb 77f 76f
8:50 3.5ft 5s 4s 16 20 mph 1014.8mb 77f 76f
7:50 3.5ft 7s 4s 18 20 mph 1014.5mb 77f 76f
6:50 3ft 7s 4s 16 18 mph 1014.1mb 77f 76f
5:50 3.5ft 7s 5s 16 18 mph 1014mb 77f 76f
4:50 3ft 7s 4s 16 18 mph 1014mb 77f 76f
3:50 3ft 7s 5s 16 18 mph 1014.2mb 77f 76f
2:50 3ft 7s 5s 13 16 mph 1014.6mb 77f 76f
1:50 3ft 7s 5s 13 16 mph 1015.1mb 77f 76f
12:50 3ft 7s 5s 13 16 mph 1015.7mb 77f 76f
Sáb 05/27 11:50 3ft 6s 5s 13 16 mph 1015.8mb 77f 76f
10:50 3ft 7s 5s 16 18 mph 1015.9mb 77f 76f
9:50 3ft 8s 5s 16 16 mph 1015.3mb 77f 76f
8:50 3ft 7s 5s 13 16 mph 1015.5mb 77f 76f
7:50 3ft 7s 5s 11 13 mph 1015.8mb 77f 76f
6:50 3ft 7s 5s 13 16 mph 1016.1mb 77f 77f
5:50 3ft 7s 5s 13 16 mph 1016.3mb 78f 77f
4:50 3ft 7s 5s 13 16 mph 1016.1mb 78f 76f
3:50 3ft 7s 5s 13 16 mph 1016.1mb 78f 76f
2:50 3ft 7s 5s 13 13 mph 1016.8mb 78f 76f
1:50 3.5ft 8s 5s 11 13 mph 1017.1mb 78f 76f
12:50 3.5ft 7s 5s 11 13 mph 1017.2mb 77f 76f
11:50 3.5ft 7s 5s 11 13 mph 1017.3mb 77f 76f
10:50 3.5ft 7s 5s 11 13 mph 1017.2mb 77f 76f
9:50 3.5ft 5s 5s 9 13 mph 1017.4mb 77f 76f
8:50 3.5ft 6s 5s 11 13 mph 1017.3mb 77f 76f
7:50 4ft 7s 5s 11 13 mph 1017.1mb 77f 76f
6:50 4ft 6s 5s 9 13 mph 1017mb 77f 76f
5:50 4.5ft 7s 5s 11 13 mph 1016.6mb 77f 75f
4:50 4.5ft 6s 5s 11 13 mph 1016mb 77f 75f
3:50 4.5ft 7s 5s 13 16 mph 1016.2mb 77f 76f
2:50 4ft 6s 5s 13 16 mph 1016.5mb 77f 76f
1:50 4.5ft 6s 5s 13 16 mph 1016.8mb 77f 76f
12:50 4.5ft 7s 5s 13 18 mph 1017mb 77f 76f
Sex 05/26 11:50 4.5ft 7s 5s 13 18 mph 1016.7mb 77f 77f
10:50 4.5ft 7s 5s 16 18 mph 1016.6mb 77f 77f
9:50 5ft 7s 5s 18 20 mph 1016.4mb 77f 77f
8:50 5ft 7s 6s 13 18 mph 1016mb 77f 77f
7:50 4.5ft 7s 5s 13 18 mph 1015.6mb 77f 77f
6:50 5ft 7s 5s 13 16 mph 1015.3mb 77f 77f
5:50 5ft 8s 6s 16 18 mph 1015.1mb 77f 77f
4:50 5.5ft 7s 6s 11 16 mph 1015.2mb 77f 77f
3:50 5ft 8s 6s 11 13 mph 1015.3mb 77f 77f
2:50 5.5ft 8s 6s 11 13 mph 1015.8mb 77f 76f
1:50 6ft 8s 6s 13 16 mph 1016mb 77f 76f
12:50 6ft 8s 6s 13 18 mph 1016.2mb 77f 76f
11:50 7ft 8s 6s 13 16 mph 1016.4mb 77f 76f
10:50 7ft 8s 6s 16 18 mph 1016mb 77f 76f
9:50 8ft 8s 6s 16 20 mph 1015.9mb 76f 76f
8:50 8ft 8s 6s 16 20 mph 1015.5mb 76f 77f
7:50 8ft 7s 6s 18 22 mph 1015mb 76f 77f
6:50 8ft 9s 6s 20 22 mph 1014.6mb 76f 77f
5:50 9ft 8s 6s 20 25 mph 1014.1mb 76f 77f
4:50 8.5ft 8s 6s 20 25 mph 1013.5mb 76f 76f
3:50 9ft 9s 6s 22 27 mph 1013.3mb 76f 76f
2:50 9ft 9s 6s 22 27 mph 1013.1mb 76f 76f
1:50 11ft 8s 7s 22 29 mph 1013mb 76f 76f
12:50 10ft 9s 7s 25 29 mph 1013mb 76f 76f
Qui 05/25 11:50 10ft 8s 7s 25 31 mph 1012.6mb 77f 76f
10:50 10ft 8s 7s 27 34 mph 1011.6mb 77f 76f
9:50 10ft 9s 7s 27 34 mph 1010.7mb 77f 77f
8:50 10ft 8s 7s 25 34 mph 1010mb 77f 77f
7:50 10ft 8s 7s 22 31 mph 1009.8mb 77f 77f
6:50 8.5ft 8s 7s 20 25 mph 1009.5mb 77f 76f
5:50 10ft 8s 7s 20 27 mph 1009.1mb 77f 75f
4:50 11ft 8s 7s 20 22 mph 1008.8mb 76f 74f
3:50 12.5ft 8s 7s 29 38 mph 1008.7mb 76f 72f